KSBO

Details ICAO KSBO (SBO)
Name EMANUEL CO
Region United States
Timezone America/New_York (UTC-5.0)
Plans Departing 6
Arriving 6
Stats Elevation 327 ft / 100 m (AMSL)
Location 32.609131° -82.369941°
Runways 1
Magnetic Variation 6.336° W
Sunrise 2017-12-13 12:24:19 UTC / 2017-12-13 07:24:19 Local
Sunset 2017-12-13 22:26:06 UTC / 2017-12-13 17:26:06 Local
Advertisement - Login to hide

Runways

ID Width Length Bearing (true) Bearing (mag) Surface Threshold Offset Overrun Length
13 100 ft / 30 m 6,022 ft / 1,836 m 129.62° 135.96° Asphalt 0 ft / 0 m 100 ft / 30 m
31 100 ft / 30 m 6,022 ft / 1,836 m 309.63° 315.97° Asphalt 0 ft / 0 m 0 ft / 0 m

Approach Navaids

Runway Type Ident Frequency Range Bearing (true) Bearing (mag) Slope Elevation
13 Localiser ISBO 109.35 MHz 18 nm / 33 km 129.63° 135.97° - 322 ft / 98 m (AMSL)

Map

Weather


0- 5 10 15 20 25 30 35+ Temperature / ° C

Clouds and Precipitation
Forecast for 2017-12-14 00:00 UTC. Updated an hour ago

Ground ~20,000 ft ~40,000 ft Winds

METAR

KSBO 140030Z AUTO 30003KT 10SM CLR 06/M03 A2996 RMK AO2

TAF

Not found

Frequencies

Recorded 133.37 MHz AWOS 3
Unicom 122.97 MHz CTAF/UNICOM
Warning: Do not use this data for real-world aviation or navigation. No guarantee of current accuracy is given.